createdAt,value
2018-11-01T00:01:36.214Z,96834.09
2018-11-01T00:04:07.269Z,96831.92
2018-11-01T00:06:38.261Z,96841.31
2018-11-01T00:09:10.777Z,96838.80
2018-11-01T00:11:41.778Z,96838.08
2018-11-01T00:14:12.910Z,96840.31
2018-11-01T00:16:44.155Z,96843.83
2018-11-01T00:19:15.176Z,96863.59
2018-11-01T00:21:46.303Z,96854.09
2018-11-01T00:24:17.296Z,96851.19
2018-11-01T00:26:48.333Z,96847.39
2018-11-01T00:29:19.325Z,96853.08
2018-11-01T00:31:50.335Z,96852.25
2018-11-01T00:34:21.312Z,96850.48
2018-11-01T00:36:52.312Z,96852.85
2018-11-01T00:39:23.357Z,96853.95
2018-11-01T00:41:54.788Z,96860.63
2018-11-01T00:44:25.865Z,96859.25
2018-11-01T00:46:57.246Z,96866.48
2018-11-01T00:49:28.552Z,96872.08
2018-11-01T00:51:59.611Z,96879.69
2018-11-01T00:54:30.616Z,96879.16
2018-11-01T00:57:01.693Z,96880.75
2018-11-01T00:59:33.046Z,96871.16
2018-11-01T01:02:04.225Z,96876.33
2018-11-01T01:04:35.426Z,96870.40
2018-11-01T01:07:06.543Z,96858.70
2018-11-01T01:09:37.462Z,96850.17
2018-11-01T01:12:09.059Z,96859.63
2018-11-01T01:14:40.089Z,96864.16
2018-11-01T01:17:11.057Z,96854.57
2018-11-01T01:19:42.159Z,96850.16
2018-11-01T01:22:13.737Z,96847.02
2018-11-01T01:24:45.294Z,96852.09
2018-11-01T01:27:16.632Z,96846.66
2018-11-01T01:29:48.489Z,96842.25
2018-11-01T01:32:19.612Z,96848.88
2018-11-01T01:34:50.796Z,96841.89
2018-11-01T01:37:21.962Z,96834.52
2018-11-01T01:39:53.427Z,96833.83
2018-11-01T01:42:36.586Z,96819.70
2018-11-01T01:45:09.327Z,96821.80
2018-11-01T01:47:40.724Z,96810.09
2018-11-01T01:50:14.578Z,96806.74
2018-11-01T01:52:45.949Z,96790.86
2018-11-01T01:55:17.360Z,96788.23
2018-11-01T01:57:48.348Z,96773.73
2018-11-01T02:00:20.983Z,96780.28
2018-11-01T02:02:53.434Z,96768.33
2018-11-01T02:05:24.944Z,96767.07
2018-11-01T02:07:56.413Z,96764.09
2018-11-01T02:10:27.420Z,96759.02
2018-11-01T02:12:58.452Z,96759.11
2018-11-01T02:15:29.401Z,96757.36
2018-11-01T02:18:00.471Z,96760.72
2018-11-01T02:20:32.389Z,96756.80
2018-11-01T02:23:03.436Z,96764.00
2018-11-01T02:25:34.528Z,96766.44
2018-11-01T02:28:18.827Z,96779.93
2018-11-01T02:30:50.210Z,96787.05
2018-11-01T02:33:21.287Z,96790.82
2018-11-01T02:35:52.694Z,96798.92
2018-11-01T02:38:24.121Z,96781.71
2018-11-01T02:40:55.306Z,96779.47
2018-11-01T02:43:26.649Z,96780.59
2018-11-01T02:46:02.224Z,96785.69
2018-11-01T02:48:33.499Z,96780.39
2018-11-01T02:51:04.572Z,96774.39
2018-11-01T02:53:36.017Z,96769.75
2018-11-01T02:56:07.324Z,96784.28
2018-11-01T02:58:38.391Z,96803.83
2018-11-01T03:01:09.443Z,96791.29
2018-11-01T03:03:40.527Z,96794.42
2018-11-01T03:06:11.479Z,96785.95
2018-11-01T03:08:42.717Z,96772.74
2018-11-01T03:11:13.834Z,96771.06
2018-11-01T03:13:45.346Z,96790.84
2018-11-01T03:16:16.335Z,96788.95
2018-11-01T03:18:47.969Z,96783.64
2018-11-01T03:21:19.340Z,96779.39
2018-11-01T03:23:50.389Z,96788.66
2018-11-01T03:26:21.663Z,96788.64
2018-11-01T03:28:52.662Z,96788.19
2018-11-01T03:31:24.173Z,96786.45
2018-11-01T03:33:55.285Z,96776.24
2018-11-01T03:36:26.805Z,96759.59
2018-11-01T03:38:58.281Z,96744.72
2018-11-01T03:41:29.136Z,96733.08
2018-11-01T03:44:00.899Z,96740.79
2018-11-01T03:46:32.603Z,96742.92
2018-11-01T03:49:03.763Z,96738.67
2018-11-01T03:51:34.939Z,96737.75
2018-11-01T03:54:06.725Z,96742.00
2018-11-01T03:56:38.913Z,96733.02
2018-11-01T03:59:10.040Z,96727.84
2018-11-01T04:01:41.508Z,96717.27
2018-11-01T04:04:12.640Z,96702.05
2018-11-01T04:06:43.725Z,96703.38
2018-11-01T04:09:15.559Z,96716.98
2018-11-01T04:11:46.487Z,96727.25
2018-11-01T04:14:17.591Z,96729.82
2018-11-01T04:16:48.657Z,96720.78
2018-11-01T04:19:19.679Z,96722.45
2018-11-01T04:21:54.325Z,96713.02
2018-11-01T04:24:25.682Z,96702.28
2018-11-01T04:26:56.857Z,96703.09
2018-11-01T04:29:27.971Z,96686.89
2018-11-01T04:31:59.317Z,96672.02
2018-11-01T04:34:30.861Z,96680.23
2018-11-01T04:37:01.803Z,96687.93
2018-11-01T04:39:32.743Z,96690.55
2018-11-01T04:42:03.949Z,96683.77
2018-11-01T04:44:35.221Z,96685.98
2018-11-01T04:47:06.275Z,96689.84
2018-11-01T04:49:37.605Z,96697.58
2018-11-01T04:52:09.031Z,96695.84
2018-11-01T04:54:40.137Z,96699.69
2018-11-01T04:57:11.122Z,96692.55
2018-11-01T04:59:42.179Z,96697.31
2018-11-01T05:02:13.187Z,96695.81
2018-11-01T05:04:44.150Z,96677.46
2018-11-01T05:07:15.156Z,96675.72
2018-11-01T05:09:47.192Z,96669.33
2018-11-01T05:12:18.200Z,96660.34
2018-11-01T05:14:49.307Z,96641.04
2018-11-01T05:17:20.327Z,96644.02
2018-11-01T05:19:51.487Z,96647.46
2018-11-01T05:22:22.530Z,96636.35
2018-11-01T05:24:53.647Z,96630.39
2018-11-01T05:27:24.626Z,96633.82
2018-11-01T05:29:55.575Z,96630.01
2018-11-01T05:32:26.615Z,96624.87
2018-11-01T05:34:58.318Z,96609.87
2018-11-01T05:37:29.413Z,96616.33
2018-11-01T05:40:00.377Z,96615.46
2018-11-01T05:42:32.505Z,96628.30
2018-11-01T05:45:03.992Z,96617.95
2018-11-01T05:47:34.968Z,96612.37
2018-11-01T05:50:06.144Z,96614.52
2018-11-01T05:52:37.220Z,96597.83
2018-11-01T05:55:09.019Z,96607.68
2018-11-01T05:57:39.958Z,96599.25
2018-11-01T06:00:15.207Z,96599.73
2018-11-01T06:02:50.148Z,96585.23
2018-11-01T06:05:21.020Z,96582.77
2018-11-01T06:08:11.912Z,96571.62
2018-11-01T06:10:42.803Z,96552.73
2018-11-01T06:13:13.660Z,96558.72
2018-11-01T06:15:44.540Z,96555.67
2018-11-01T06:18:15.420Z,96541.06
2018-11-01T06:20:46.371Z,96557.71
2018-11-01T06:23:17.224Z,96567.16
2018-11-01T06:25:48.280Z,96580.93
2018-11-01T06:28:19.184Z,96572.44
2018-11-01T06:30:50.343Z,96571.98
2018-11-01T06:33:21.530Z,96575.48
2018-11-01T06:35:54.307Z,96575.50
2018-11-01T06:38:25.235Z,96583.72
2018-11-01T06:40:56.453Z,96600.06
2018-11-01T06:43:27.931Z,96594.97
2018-11-01T06:45:58.820Z,96595.41
2018-11-01T06:48:29.731Z,96587.70
2018-11-01T06:51:00.625Z,96590.26
2018-11-01T06:53:31.534Z,96579.97
2018-11-01T06:56:02.704Z,96591.53
2018-11-01T06:58:34.313Z,96587.23
2018-11-01T07:01:05.029Z,96581.26
2018-11-01T07:03:35.952Z,96588.53
2018-11-01T07:06:07.033Z,96594.58
2018-11-01T07:08:38.268Z,96588.61
2018-11-01T07:11:09.152Z,96570.16
2018-11-01T07:13:40.044Z,96543.56
2018-11-01T07:16:10.946Z,96539.30
2018-11-01T07:18:41.847Z,96537.17
2018-11-01T07:21:12.744Z,96564.22
2018-11-01T07:23:43.658Z,96578.37
2018-11-01T07:26:14.722Z,96582.66
2018-11-01T07:28:45.774Z,96580.56
2018-11-01T07:31:17.078Z,96575.88
2018-11-01T07:33:47.980Z,96580.17
2018-11-01T07:36:19.066Z,96584.03
2018-11-01T07:38:50.516Z,96596.05
2018-11-01T07:41:21.748Z,96591.80
2018-11-01T07:43:52.694Z,96564.75
2018-11-01T07:46:23.579Z,96557.89
2018-11-01T07:48:54.744Z,96559.17
2018-11-01T07:51:25.909Z,96568.61
2018-11-01T07:53:56.873Z,96571.20
2018-11-01T07:56:27.756Z,96584.48
2018-11-01T07:58:58.807Z,96571.21
2018-11-01T08:01:29.746Z,96560.45
2018-11-01T08:04:01.284Z,96574.18
2018-11-01T08:06:32.281Z,96575.47
2018-11-01T08:09:05.024Z,96575.50
2018-11-01T08:11:36.548Z,96577.20
2018-11-01T08:14:08.169Z,96570.75
2018-11-01T08:16:39.426Z,96564.75
2018-11-01T08:19:10.950Z,96548.00
2018-11-01T08:21:42.134Z,96541.13
2018-11-01T08:24:13.275Z,96545.84
2018-11-01T08:26:44.564Z,96539.41
2018-11-01T08:29:15.554Z,96552.28
2018-11-01T08:31:46.449Z,96560.45
2018-11-01T08:34:17.350Z,96570.76
2018-11-01T08:36:48.258Z,96567.75
2018-11-01T08:39:19.567Z,96559.59
2018-11-01T08:41:50.610Z,96558.32
2018-11-01T08:44:21.525Z,96557.89
2018-11-01T08:46:52.426Z,96569.48
2018-11-01T08:49:23.422Z,96572.48
2018-11-01T08:51:54.324Z,96557.44
2018-11-01T08:54:25.656Z,96549.28
2018-11-01T08:56:56.583Z,96560.03
2018-11-01T08:59:27.857Z,96548.86
2018-11-01T09:01:59.080Z,96544.56
2018-11-01T09:04:30.351Z,96541.12
2018-11-01T09:07:01.566Z,96545.86
2018-11-01T09:09:32.509Z,96557.86
2018-11-01T09:12:03.785Z,96575.46
2018-11-01T09:14:35.664Z,96584.07
2018-11-01T09:17:06.728Z,96569.88
2018-11-01T09:19:38.394Z,96563.43
2018-11-01T09:22:09.936Z,96548.80
2018-11-01T09:24:40.927Z,96546.25
2018-11-01T09:27:11.865Z,96558.27
2018-11-01T09:29:43.173Z,96560.39
2018-11-01T09:32:14.107Z,96554.81
2018-11-01T09:34:45.556Z,96562.95
2018-11-01T09:37:16.809Z,96572.86
2018-11-01T09:39:48.146Z,96571.11
2018-11-01T09:42:19.166Z,96578.41
2018-11-01T09:44:50.171Z,96576.27
2018-11-01T09:47:21.492Z,96563.77
2018-11-01T09:49:52.445Z,96531.95
2018-11-01T09:52:24.005Z,96516.50
2018-11-01T09:54:54.996Z,96501.89
2018-11-01T09:57:26.251Z,96512.66
2018-11-01T09:59:57.157Z,96527.70
2018-11-01T10:02:28.808Z,96538.45
2018-11-01T10:04:59.728Z,96536.67
2018-11-01T10:07:31.039Z,96537.50
2018-11-01T10:10:01.958Z,96535.34
2018-11-01T10:12:33.165Z,96540.06
2018-11-01T10:15:04.102Z,96540.04
2018-11-01T10:17:35.800Z,96539.19
2018-11-01T10:20:08.400Z,96548.64
2018-11-01T10:22:39.736Z,96552.09
2018-11-01T10:25:12.774Z,96553.34
2018-11-01T10:27:43.750Z,96558.92
2018-11-01T10:30:17.020Z,96565.88
2018-11-01T10:32:48.726Z,96561.13
2018-11-01T10:35:20.255Z,96572.75
2018-11-01T10:37:51.109Z,96568.02
2018-11-01T10:40:22.661Z,96561.98
2018-11-01T10:42:54.126Z,96565.41
2018-11-01T10:45:25.334Z,96555.91
2018-11-01T10:47:56.341Z,96553.72
2018-11-01T10:50:27.313Z,96565.34
2018-11-01T10:52:58.619Z,96564.00
2018-11-01T10:55:29.637Z,96557.55
2018-11-01T10:58:01.163Z,96546.31
2018-11-01T11:00:49.520Z,96540.24
2018-11-01T11:03:20.732Z,96517.37
2018-11-01T11:05:51.863Z,96496.64
2018-11-01T11:08:23.165Z,96465.50
2018-11-01T11:10:54.523Z,96454.71
2018-11-01T11:13:25.747Z,96445.65
2018-11-01T11:15:57.174Z,96434.92
2018-11-01T11:18:28.598Z,96438.66
2018-11-01T11:21:00.126Z,96466.11
2018-11-01T11:23:30.736Z,96469.82
2018-11-01T11:26:02.021Z,96464.09
2018-11-01T11:28:33.523Z,96447.53
2018-11-01T11:31:04.997Z,96447.94
2018-11-01T11:33:36.389Z,96465.05
2018-11-01T11:36:07.838Z,96467.46
2018-11-01T11:38:38.745Z,96461.70
2018-11-01T11:41:09.805Z,96450.98
2018-11-01T11:43:40.766Z,96455.75
2018-11-01T11:46:12.144Z,96460.59
2018-11-01T11:48:43.210Z,96451.13
2018-11-01T11:51:14.310Z,96466.11
2018-11-01T11:53:45.621Z,96469.41
2018-11-01T11:56:17.462Z,96474.47
2018-11-01T11:58:48.440Z,96477.00
2018-11-01T12:01:19.411Z,96488.90
2018-11-01T12:03:50.373Z,96493.98
2018-11-01T12:06:21.790Z,96491.27
2018-11-01T12:08:52.612Z,96502.92
2018-11-01T12:11:23.668Z,96506.94
2018-11-01T12:13:54.709Z,96509.59
2018-11-01T12:16:26.057Z,96523.50
2018-11-01T12:18:57.854Z,96524.11
2018-11-01T12:21:28.973Z,96527.19
2018-11-01T12:24:00.549Z,96534.01
2018-11-01T12:26:31.906Z,96541.72
2018-11-01T12:29:03.183Z,96533.20
2018-11-01T12:31:35.477Z,96535.80
2018-11-01T12:34:07.045Z,96533.40
2018-11-01T12:36:38.237Z,96532.21
2018-11-01T12:39:10.170Z,96529.16
2018-11-01T12:41:41.258Z,96523.50
2018-11-01T12:44:12.265Z,96529.91
2018-11-01T12:46:43.305Z,96519.99
2018-11-01T12:49:14.907Z,96528.14
2018-11-01T12:51:46.202Z,96522.58
2018-11-01T12:54:17.506Z,96510.01
2018-11-01T12:56:48.485Z,96504.08
2018-11-01T12:59:19.418Z,96501.95
2018-11-01T13:01:50.426Z,96513.09
2018-11-01T13:04:21.473Z,96515.36
2018-11-01T13:06:52.453Z,96515.87
2018-11-01T13:09:23.421Z,96515.89
2018-11-01T13:11:54.401Z,96508.16
2018-11-01T13:14:26.022Z,96513.73
2018-11-01T13:16:57.780Z,96518.10
2018-11-01T13:19:29.646Z,96532.77
2018-11-01T13:22:00.682Z,96526.66
2018-11-01T13:24:31.950Z,96524.92
2018-11-01T13:27:03.383Z,96527.16
2018-11-01T13:29:34.391Z,96527.61
2018-11-01T13:32:05.444Z,96532.48
2018-11-01T13:34:36.769Z,96520.00
2018-11-01T13:37:07.717Z,96526.06
2018-11-01T13:39:39.278Z,96521.70
2018-11-01T13:42:10.177Z,96521.23
2018-11-01T13:44:41.396Z,96536.22
2018-11-01T13:47:12.434Z,96535.15
2018-11-01T13:49:43.644Z,96542.93
2018-11-01T13:52:14.721Z,96547.09
2018-11-01T13:54:45.827Z,96550.16
2018-11-01T13:57:16.967Z,96554.00
2018-11-01T13:59:48.026Z,96563.02
2018-11-01T14:02:19.100Z,96564.37
2018-11-01T14:04:50.178Z,96554.98
2018-11-01T14:07:21.220Z,96560.48
2018-11-01T14:09:52.386Z,96571.37
2018-11-01T14:12:23.530Z,96583.58
2018-11-01T14:14:54.871Z,96586.61
2018-11-01T14:17:25.580Z,96595.83
2018-11-01T14:19:56.585Z,96599.44
2018-11-01T14:22:27.705Z,96609.59
2018-11-01T14:24:58.833Z,96602.64
2018-11-01T14:27:29.901Z,96606.58
2018-11-01T14:30:00.868Z,96613.03
2018-11-01T14:32:32.219Z,96612.78
2018-11-01T14:35:04.028Z,96621.36
2018-11-01T14:37:35.278Z,96623.95
2018-11-01T14:40:08.141Z,96622.50
2018-11-01T14:42:39.397Z,96630.05
2018-11-01T14:45:10.887Z,96648.33
2018-11-01T14:47:42.001Z,96642.86
2018-11-01T14:50:13.296Z,96640.56
2018-11-01T14:52:44.570Z,96659.23
2018-11-01T14:55:16.483Z,96653.37
2018-11-01T14:57:47.700Z,96660.45
2018-11-01T15:00:17.312Z,96663.91
2018-11-01T15:02:48.384Z,96663.07
2018-11-01T15:05:19.689Z,96661.17
2018-11-01T15:07:50.987Z,96670.08
2018-11-01T15:10:21.909Z,96665.47
2018-11-01T15:12:53.396Z,96672.20
2018-11-01T15:15:24.341Z,96670.69
2018-11-01T15:17:55.736Z,96664.03
2018-11-01T15:20:26.736Z,96666.34
2018-11-01T15:22:58.013Z,96666.65
2018-11-01T15:25:29.326Z,96681.13
2018-11-01T15:28:00.646Z,96682.97
2018-11-01T15:30:31.695Z,96686.81
2018-11-01T15:33:02.738Z,96696.70
2018-11-01T15:35:33.689Z,96690.66
2018-11-01T15:38:05.096Z,96695.03
2018-11-01T15:40:36.193Z,96685.22
2018-11-01T15:43:07.201Z,96692.17
2018-11-01T15:45:38.673Z,96694.41
2018-11-01T15:48:09.710Z,96699.66
2018-11-01T15:50:40.650Z,96703.56
2018-11-01T15:53:11.700Z,96704.81
2018-11-01T15:55:42.785Z,96711.22
2018-11-01T15:58:14.085Z,96711.16
2018-11-01T16:00:45.095Z,96707.20
2018-11-01T16:03:16.537Z,96719.97
2018-11-01T16:05:47.760Z,96727.11
2018-11-01T16:08:18.905Z,96735.97
2018-11-01T16:10:50.935Z,96740.41
2018-11-01T16:13:22.514Z,96744.14
2018-11-01T16:15:53.920Z,96746.71
2018-11-01T16:18:25.452Z,96748.75
2018-11-01T16:20:56.918Z,96740.98
2018-11-01T16:23:28.074Z,96756.73
2018-11-01T16:25:59.080Z,96756.58
2018-11-01T16:28:30.249Z,96764.19
2018-11-01T16:31:01.253Z,96773.02
2018-11-01T16:33:33.117Z,96772.44
2018-11-01T16:36:04.470Z,96776.13
2018-11-01T16:38:35.667Z,96779.11
2018-11-01T16:41:06.983Z,96778.34
2018-11-01T16:43:38.161Z,96780.78
2018-11-01T16:46:09.317Z,96782.52
2018-11-01T16:48:40.619Z,96773.25
2018-11-01T16:51:11.818Z,96784.63
2018-11-01T16:53:42.730Z,96788.08
2018-11-01T16:56:13.845Z,96789.08
2018-11-01T16:58:44.870Z,96801.73
2018-11-01T17:01:16.440Z,96809.31
2018-11-01T17:03:47.570Z,96810.13
2018-11-01T17:06:18.699Z,96809.17
2018-11-01T17:08:49.773Z,96804.44
2018-11-01T17:11:20.899Z,96816.67
2018-11-01T17:13:51.882Z,96822.47
2018-11-01T17:16:23.275Z,96827.80
2018-11-01T17:18:54.808Z,96836.15
2018-11-01T17:21:25.984Z,96837.01
2018-11-01T17:23:57.296Z,96845.49
2018-11-01T17:26:28.863Z,96840.77
2018-11-01T17:28:59.889Z,96844.13
2018-11-01T17:31:30.845Z,96845.73
2018-11-01T17:34:01.984Z,96849.37
2018-11-01T17:36:32.863Z,96843.80
2018-11-01T17:39:04.614Z,96845.87
2018-11-01T17:41:35.518Z,96838.44
2018-11-01T17:44:06.524Z,96845.13
2018-11-01T17:46:37.456Z,96843.41
2018-11-01T17:49:09.410Z,96841.98
2018-11-01T17:51:40.567Z,96855.14
2018-11-01T17:54:17.928Z,96845.75
2018-11-01T17:56:48.857Z,96850.49
2018-11-01T17:59:19.793Z,96864.55
2018-11-01T18:01:51.230Z,96860.63
2018-11-01T18:04:22.105Z,96862.91
2018-11-01T18:06:53.090Z,96862.30
2018-11-01T18:09:24.008Z,96880.44
2018-11-01T18:11:54.943Z,96890.91
2018-11-01T18:14:25.919Z,96902.64
2018-11-01T18:16:56.797Z,96901.16
2018-11-01T18:19:27.787Z,96902.61
2018-11-01T18:21:58.788Z,96902.48
2018-11-01T18:24:29.691Z,96910.80
2018-11-01T18:27:00.638Z,96933.72
2018-11-01T18:29:31.573Z,96931.91
2018-11-01T18:32:03.104Z,96941.84
2018-11-01T18:34:34.092Z,96937.44
2018-11-01T18:37:05.558Z,96939.43
2018-11-01T18:39:36.628Z,96948.85
2018-11-01T18:42:07.930Z,96941.75
2018-11-01T18:44:39.348Z,96932.40
2018-11-01T18:47:10.352Z,96928.44
2018-11-01T18:49:41.305Z,96923.80
2018-11-01T18:52:12.300Z,96919.04
2018-11-01T18:54:43.449Z,96924.03
2018-11-01T18:57:14.460Z,96928.84
2018-11-01T18:59:45.389Z,96935.25
2018-11-01T19:02:16.468Z,96939.50
2018-11-01T19:04:47.439Z,96945.66
2018-11-01T19:07:18.387Z,96958.82
2018-11-01T19:09:49.329Z,96972.37
2018-11-01T19:12:20.297Z,96969.63
2018-11-01T19:14:51.208Z,96977.00
2018-11-01T19:17:22.170Z,96997.94
2018-11-01T19:19:53.377Z,97005.09
2018-11-01T19:22:24.278Z,96998.73
2018-11-01T19:24:55.201Z,97005.92
2018-11-01T19:27:26.495Z,97015.52
2018-11-01T19:29:57.392Z,97006.58
2018-11-01T19:32:28.579Z,97022.78
2018-11-01T19:34:59.532Z,97036.41
2018-11-01T19:37:30.957Z,97039.05
2018-11-01T19:40:02.088Z,97046.09
2018-11-01T19:42:32.889Z,97052.25
2018-11-01T19:45:03.846Z,97067.37
2018-11-01T19:47:35.067Z,97077.62
2018-11-01T19:50:06.859Z,97084.23
2018-11-01T19:52:37.910Z,97087.23
2018-11-01T19:55:08.816Z,97089.84
2018-11-01T19:57:40.282Z,97083.09
2018-11-01T20:00:16.043Z,97078.52
2018-11-01T20:02:46.300Z,97089.42
2018-11-01T20:05:17.186Z,97095.66
2018-11-01T20:07:48.410Z,97103.48
2018-11-01T20:10:19.499Z,97105.36
2018-11-01T20:12:50.702Z,97117.38
2018-11-01T20:15:21.675Z,97118.31
2018-11-01T20:17:52.627Z,97128.07
2018-11-01T20:20:24.306Z,97126.03
2018-11-01T20:22:56.013Z,97125.06
2018-11-01T20:25:27.062Z,97139.50
2018-11-01T20:27:57.972Z,97152.68
2018-11-01T20:30:29.230Z,97163.02
2018-11-01T20:33:00.134Z,97175.63
2018-11-01T20:35:31.126Z,97174.42
2018-11-01T20:38:02.462Z,97180.70
2018-11-01T20:40:33.525Z,97176.50
2018-11-01T20:43:04.480Z,97170.23
2018-11-01T20:45:35.384Z,97167.27
2018-11-01T20:48:06.818Z,97170.12
2018-11-01T20:50:37.758Z,97183.88
2018-11-01T20:53:11.631Z,97192.48
2018-11-01T20:55:42.701Z,97195.17
2018-11-01T20:58:13.792Z,97190.72
2018-11-01T21:00:45.052Z,97202.86
2018-11-01T21:03:15.950Z,97208.32
2018-11-01T21:05:47.185Z,97209.41
2018-11-01T21:08:18.555Z,97215.19
2018-11-01T21:10:49.942Z,97215.00
2018-11-01T21:13:20.846Z,97209.62
2018-11-01T21:15:51.801Z,97213.25
2018-11-01T21:18:22.903Z,97223.37
2018-11-01T21:20:54.560Z,97237.94
2018-11-01T21:23:25.500Z,97234.12
2018-11-01T21:25:56.821Z,97243.27
2018-11-01T21:28:28.008Z,97240.84
2018-11-01T21:30:59.471Z,97241.09
2018-11-01T21:33:30.646Z,97238.55
2018-11-01T21:36:01.718Z,97241.98
2018-11-01T21:38:32.815Z,97241.53
2018-11-01T21:41:03.786Z,97246.84
2018-11-01T21:43:34.698Z,97250.66
2018-11-01T21:46:05.748Z,97249.59
2018-11-01T21:48:37.439Z,97240.67
2018-11-01T21:51:08.806Z,97249.55
2018-11-01T21:53:39.783Z,97246.88
2018-11-01T21:56:11.045Z,97244.29
2018-11-01T21:58:42.310Z,97241.62
2018-11-01T22:01:13.208Z,97244.09
2018-11-01T22:03:44.637Z,97249.75
2018-11-01T22:06:16.229Z,97256.92
2018-11-01T22:08:47.141Z,97255.31
2018-11-01T22:11:18.892Z,97263.39
2018-11-01T22:13:50.218Z,97264.53
2018-11-01T22:16:21.189Z,97267.28
2018-11-01T22:18:52.118Z,97270.27
2018-11-01T22:21:23.413Z,97268.39
2018-11-01T22:23:54.779Z,97257.75
2018-11-01T22:26:25.788Z,97255.44
2018-11-01T22:28:57.015Z,97258.95
2018-11-01T22:31:28.230Z,97262.52
2018-11-01T22:33:59.224Z,97261.83
2018-11-01T22:36:30.470Z,97265.48
2018-11-01T22:39:01.701Z,97267.20
2018-11-01T22:41:32.963Z,97275.25
2018-11-01T22:44:03.871Z,97285.95
2018-11-01T22:46:34.811Z,97292.52
2018-11-01T22:49:05.727Z,97287.45
2018-11-01T22:51:36.918Z,97288.92
2018-11-01T22:54:08.060Z,97294.80
2018-11-01T22:56:40.455Z,97334.72
2018-11-01T22:59:11.694Z,97329.69
2018-11-01T23:01:42.630Z,97337.66
2018-11-01T23:04:16.061Z,97334.89
2018-11-01T23:06:49.559Z,97344.20
2018-11-01T23:09:20.836Z,97348.82
2018-11-01T23:11:52.255Z,97338.99
2018-11-01T23:14:23.792Z,97336.11
2018-11-01T23:16:54.793Z,97329.67
2018-11-01T23:19:25.729Z,97321.97
2018-11-01T23:21:57.522Z,97319.30
2018-11-01T23:24:29.496Z,97327.87
2018-11-01T23:27:00.927Z,97323.03
2018-11-01T23:29:32.112Z,97317.52
2018-11-01T23:32:03.784Z,97314.02
2018-11-01T23:34:35.367Z,97326.64
2018-11-01T23:37:24.276Z,97323.91
2018-11-01T23:40:12.596Z,97326.38
2018-11-01T23:43:02.307Z,97330.19
2018-11-01T23:45:50.314Z,97328.18
2018-11-01T23:48:19.975Z,97326.72
2018-11-01T23:51:01.688Z,97325.11
2018-11-01T23:53:35.301Z,97333.91
2018-11-01T23:56:06.315Z,97340.30
2018-11-01T23:58:37.296Z,97333.92
